sensor_id;sensor_type;location;lat;lon;timestamp;P1;durP1;ratioP1;P2;durP2;ratioP2
21148;SDS011;10732;51.472;6.466;2023-11-21T00:02:12;34.90;;;23.38;;
21148;SDS011;10732;51.472;6.466;2023-11-21T00:04:38;34.72;;;23.77;;
21148;SDS011;10732;51.472;6.466;2023-11-21T00:07:04;31.52;;;22.50;;
21148;SDS011;10732;51.472;6.466;2023-11-21T00:09:31;35.47;;;24.08;;
21148;SDS011;10732;51.472;6.466;2023-11-21T00:11:57;33.03;;;23.60;;
21148;SDS011;10732;51.472;6.466;2023-11-21T00:14:24;35.30;;;23.10;;
21148;SDS011;10732;51.472;6.466;2023-11-21T00:16:50;38.00;;;24.10;;
21148;SDS011;10732;51.472;6.466;2023-11-21T00:19:15;38.75;;;24.63;;
21148;SDS011;10732;51.472;6.466;2023-11-21T00:21:41;49.25;;;28.58;;
21148;SDS011;10732;51.472;6.466;2023-11-21T00:24:09;45.03;;;28.77;;
21148;SDS011;10732;51.472;6.466;2023-11-21T00:26:35;50.75;;;30.58;;
21148;SDS011;10732;51.472;6.466;2023-11-21T00:29:02;51.75;;;30.42;;
21148;SDS011;10732;51.472;6.466;2023-11-21T00:31:28;60.47;;;31.75;;
21148;SDS011;10732;51.472;6.466;2023-11-21T00:33:55;52.50;;;30.77;;
21148;SDS011;10732;51.472;6.466;2023-11-21T00:36:21;55.13;;;30.23;;
21148;SDS011;10732;51.472;6.466;2023-11-21T00:38:47;54.95;;;30.23;;
21148;SDS011;10732;51.472;6.466;2023-11-21T00:41:13;63.67;;;32.85;;
21148;SDS011;10732;51.472;6.466;2023-11-21T00:43:39;63.75;;;33.25;;
21148;SDS011;10732;51.472;6.466;2023-11-21T00:46:05;59.95;;;32.50;;
21148;SDS011;10732;51.472;6.466;2023-11-21T00:48:32;67.45;;;33.65;;
21148;SDS011;10732;51.472;6.466;2023-11-21T00:50:58;56.60;;;31.85;;
21148;SDS011;10732;51.472;6.466;2023-11-21T00:53:24;64.43;;;32.97;;
21148;SDS011;10732;51.472;6.466;2023-11-21T00:55:49;60.60;;;32.00;;
21148;SDS011;10732;51.472;6.466;2023-11-21T00:58:17;55.95;;;32.10;;
21148;SDS011;10732;51.472;6.466;2023-11-21T01:00:42;60.63;;;32.40;;
21148;SDS011;10732;51.472;6.466;2023-11-21T01:03:08;60.20;;;32.53;;
21148;SDS011;10732;51.472;6.466;2023-11-21T01:05:34;54.63;;;30.48;;
21148;SDS011;10732;51.472;6.466;2023-11-21T01:08:00;58.60;;;30.52;;
21148;SDS011;10732;51.472;6.466;2023-11-21T01:10:25;60.95;;;31.00;;
21148;SDS011;10732;51.472;6.466;2023-11-21T01:12:51;52.90;;;29.50;;
21148;SDS011;10732;51.472;6.466;2023-11-21T01:15:16;56.75;;;30.55;;
21148;SDS011;10732;51.472;6.466;2023-11-21T01:17:42;63.38;;;30.55;;
21148;SDS011;10732;51.472;6.466;2023-11-21T01:20:07;51.85;;;30.27;;
21148;SDS011;10732;51.472;6.466;2023-11-21T01:22:37;62.58;;;30.48;;
21148;SDS011;10732;51.472;6.466;2023-11-21T01:25:04;65.07;;;30.83;;
21148;SDS011;10732;51.472;6.466;2023-11-21T01:27:35;57.33;;;31.73;;
21148;SDS011;10732;51.472;6.466;2023-11-21T01:30:02;57.72;;;30.77;;
21148;SDS011;10732;51.472;6.466;2023-11-21T01:32:28;61.03;;;30.48;;
21148;SDS011;10732;51.472;6.466;2023-11-21T01:34:54;55.03;;;28.13;;
21148;SDS011;10732;51.472;6.466;2023-11-21T01:37:23;60.03;;;28.67;;
21148;SDS011;10732;51.472;6.466;2023-11-21T01:39:49;50.40;;;27.77;;
21148;SDS011;10732;51.472;6.466;2023-11-21T01:42:14;55.92;;;28.02;;
21148;SDS011;10732;51.472;6.466;2023-11-21T01:44:40;57.25;;;28.65;;
21148;SDS011;10732;51.472;6.466;2023-11-21T01:47:06;56.13;;;28.40;;
21148;SDS011;10732;51.472;6.466;2023-11-21T01:49:32;55.45;;;27.40;;
21148;SDS011;10732;51.472;6.466;2023-11-21T01:51:58;57.08;;;28.08;;
21148;SDS011;10732;51.472;6.466;2023-11-21T01:54:24;50.67;;;27.42;;
21148;SDS011;10732;51.472;6.466;2023-11-21T01:56:50;54.13;;;26.83;;
21148;SDS011;10732;51.472;6.466;2023-11-21T01:59:18;53.60;;;28.00;;
21148;SDS011;10732;51.472;6.466;2023-11-21T02:01:49;50.58;;;26.38;;
21148;SDS011;10732;51.472;6.466;2023-11-21T02:04:15;54.70;;;26.75;;
21148;SDS011;10732;51.472;6.466;2023-11-21T02:06:41;59.03;;;27.70;;
21148;SDS011;10732;51.472;6.466;2023-11-21T02:09:07;48.55;;;26.10;;
21148;SDS011;10732;51.472;6.466;2023-11-21T02:11:34;53.17;;;27.13;;
21148;SDS011;10732;51.472;6.466;2023-11-21T02:13:59;57.92;;;27.27;;
21148;SDS011;10732;51.472;6.466;2023-11-21T02:16:25;48.40;;;25.58;;
21148;SDS011;10732;51.472;6.466;2023-11-21T02:18:52;52.65;;;27.15;;
21148;SDS011;10732;51.472;6.466;2023-11-21T02:21:18;48.05;;;27.30;;
21148;SDS011;10732;51.472;6.466;2023-11-21T02:23:44;47.20;;;25.98;;
21148;SDS011;10732;51.472;6.466;2023-11-21T02:26:11;48.90;;;26.13;;
21148;SDS011;10732;51.472;6.466;2023-11-21T02:28:37;48.25;;;25.95;;
21148;SDS011;10732;51.472;6.466;2023-11-21T02:31:04;53.80;;;27.05;;
21148;SDS011;10732;51.472;6.466;2023-11-21T02:33:30;54.67;;;27.02;;
21148;SDS011;10732;51.472;6.466;2023-11-21T02:35:58;50.33;;;25.02;;
21148;SDS011;10732;51.472;6.466;2023-11-21T02:38:24;52.28;;;26.42;;
21148;SDS011;10732;51.472;6.466;2023-11-21T02:40:50;54.90;;;27.52;;
21148;SDS011;10732;51.472;6.466;2023-11-21T02:43:16;54.63;;;27.85;;
21148;SDS011;10732;51.472;6.466;2023-11-21T02:45:41;60.28;;;27.98;;
21148;SDS011;10732;51.472;6.466;2023-11-21T02:48:07;54.30;;;27.75;;
21148;SDS011;10732;51.472;6.466;2023-11-21T02:50:32;52.97;;;27.15;;
21148;SDS011;10732;51.472;6.466;2023-11-21T02:53:00;55.55;;;27.45;;
21148;SDS011;10732;51.472;6.466;2023-11-21T02:55:26;55.83;;;27.90;;
21148;SDS011;10732;51.472;6.466;2023-11-21T02:57:52;56.67;;;28.15;;
21148;SDS011;10732;51.472;6.466;2023-11-21T03:00:18;58.50;;;27.85;;
21148;SDS011;10732;51.472;6.466;2023-11-21T03:02:43;56.30;;;26.73;;
21148;SDS011;10732;51.472;6.466;2023-11-21T03:05:10;55.08;;;27.60;;
21148;SDS011;10732;51.472;6.466;2023-11-21T03:07:36;57.80;;;28.73;;
21148;SDS011;10732;51.472;6.466;2023-11-21T03:10:03;60.03;;;28.25;;
21148;SDS011;10732;51.472;6.466;2023-11-21T03:12:29;56.47;;;28.35;;
21148;SDS011;10732;51.472;6.466;2023-11-21T03:14:55;52.63;;;27.02;;
21148;SDS011;10732;51.472;6.466;2023-11-21T03:17:21;50.35;;;26.00;;
21148;SDS011;10732;51.472;6.466;2023-11-21T03:19:46;51.00;;;26.15;;
21148;SDS011;10732;51.472;6.466;2023-11-21T03:22:12;52.55;;;26.00;;
21148;SDS011;10732;51.472;6.466;2023-11-21T03:24:38;59.20;;;27.42;;
21148;SDS011;10732;51.472;6.466;2023-11-21T03:27:04;60.53;;;28.02;;
21148;SDS011;10732;51.472;6.466;2023-11-21T03:29:29;55.95;;;27.33;;
21148;SDS011;10732;51.472;6.466;2023-11-21T03:31:55;54.22;;;26.50;;
21148;SDS011;10732;51.472;6.466;2023-11-21T03:34:24;63.72;;;27.88;;
21148;SDS011;10732;51.472;6.466;2023-11-21T03:36:52;53.72;;;26.08;;
21148;SDS011;10732;51.472;6.466;2023-11-21T03:39:19;56.28;;;26.95;;
21148;SDS011;10732;51.472;6.466;2023-11-21T03:41:46;57.88;;;27.15;;
21148;SDS011;10732;51.472;6.466;2023-11-21T03:44:11;53.72;;;25.13;;
21148;SDS011;10732;51.472;6.466;2023-11-21T03:46:37;54.50;;;26.17;;
21148;SDS011;10732;51.472;6.466;2023-11-21T03:49:03;57.53;;;27.58;;
21148;SDS011;10732;51.472;6.466;2023-11-21T03:51:29;66.25;;;28.42;;
21148;SDS011;10732;51.472;6.466;2023-11-21T03:53:54;55.78;;;26.95;;
21148;SDS011;10732;51.472;6.466;2023-11-21T03:56:20;64.40;;;28.08;;
21148;SDS011;10732;51.472;6.466;2023-11-21T03:58:48;65.88;;;29.65;;
21148;SDS011;10732;51.472;6.466;2023-11-21T04:01:20;68.88;;;28.83;;
21148;SDS011;10732;51.472;6.466;2023-11-21T04:03:47;63.92;;;29.77;;
21148;SDS011;10732;51.472;6.466;2023-11-21T04:06:12;61.38;;;28.95;;
21148;SDS011;10732;51.472;6.466;2023-11-21T04:08:38;59.65;;;31.00;;
21148;SDS011;10732;51.472;6.466;2023-11-21T04:11:03;69.80;;;31.67;;
21148;SDS011;10732;51.472;6.466;2023-11-21T04:13:29;81.05;;;33.40;;
21148;SDS011;10732;51.472;6.466;2023-11-21T04:15:55;87.13;;;34.45;;
21148;SDS011;10732;51.472;6.466;2023-11-21T04:18:21;70.47;;;33.75;;
21148;SDS011;10732;51.472;6.466;2023-11-21T04:20:48;85.15;;;35.08;;
21148;SDS011;10732;51.472;6.466;2023-11-21T04:23:14;90.60;;;35.83;;
21148;SDS011;10732;51.472;6.466;2023-11-21T04:25:40;68.93;;;33.22;;
21148;SDS011;10732;51.472;6.466;2023-11-21T04:28:05;84.85;;;36.03;;
21148;SDS011;10732;51.472;6.466;2023-11-21T04:30:31;75.90;;;34.65;;
21148;SDS011;10732;51.472;6.466;2023-11-21T04:32:57;95.20;;;36.20;;
21148;SDS011;10732;51.472;6.466;2023-11-21T04:35:23;87.68;;;36.33;;
21148;SDS011;10732;51.472;6.466;2023-11-21T04:37:48;79.80;;;33.63;;
21148;SDS011;10732;51.472;6.466;2023-11-21T04:40:16;83.38;;;34.33;;
21148;SDS011;10732;51.472;6.466;2023-11-21T04:42:41;85.05;;;33.63;;
21148;SDS011;10732;51.472;6.466;2023-11-21T04:45:07;84.32;;;35.05;;
21148;SDS011;10732;51.472;6.466;2023-11-21T04:47:34;81.28;;;34.00;;
21148;SDS011;10732;51.472;6.466;2023-11-21T04:50:00;79.18;;;33.45;;
21148;SDS011;10732;51.472;6.466;2023-11-21T04:52:26;69.80;;;31.52;;
21148;SDS011;10732;51.472;6.466;2023-11-21T04:54:51;77.60;;;32.75;;
21148;SDS011;10732;51.472;6.466;2023-11-21T04:57:19;88.68;;;34.25;;
21148;SDS011;10732;51.472;6.466;2023-11-21T04:59:45;77.07;;;32.67;;
21148;SDS011;10732;51.472;6.466;2023-11-21T05:02:11;97.63;;;33.22;;
21148;SDS011;10732;51.472;6.466;2023-11-21T05:04:37;72.95;;;31.27;;
21148;SDS011;10732;51.472;6.466;2023-11-21T05:07:03;86.70;;;32.55;;
21148;SDS011;10732;51.472;6.466;2023-11-21T05:09:28;73.95;;;32.15;;
21148;SDS011;10732;51.472;6.466;2023-11-21T05:11:57;78.38;;;32.42;;
21148;SDS011;10732;51.472;6.466;2023-11-21T05:14:22;81.22;;;32.22;;
21148;SDS011;10732;51.472;6.466;2023-11-21T05:16:48;76.68;;;31.30;;
21148;SDS011;10732;51.472;6.466;2023-11-21T05:19:15;81.93;;;31.70;;
21148;SDS011;10732;51.472;6.466;2023-11-21T05:21:41;96.28;;;32.10;;
21148;SDS011;10732;51.472;6.466;2023-11-21T05:24:07;79.47;;;32.65;;
21148;SDS011;10732;51.472;6.466;2023-11-21T05:26:33;74.03;;;30.98;;
21148;SDS011;10732;51.472;6.466;2023-11-21T05:28:58;80.50;;;30.50;;
21148;SDS011;10732;51.472;6.466;2023-11-21T05:31:24;83.53;;;30.38;;
21148;SDS011;10732;51.472;6.466;2023-11-21T05:33:50;80.28;;;30.92;;
21148;SDS011;10732;51.472;6.466;2023-11-21T05:36:15;109.03;;;32.85;;
21148;SDS011;10732;51.472;6.466;2023-11-21T05:38:41;62.15;;;29.00;;
21148;SDS011;10732;51.472;6.466;2023-11-21T05:41:06;65.10;;;30.73;;
21148;SDS011;10732;51.472;6.466;2023-11-21T05:43:33;61.58;;;29.95;;
21148;SDS011;10732;51.472;6.466;2023-11-21T05:46:00;65.35;;;29.58;;
21148;SDS011;10732;51.472;6.466;2023-11-21T05:48:26;77.68;;;29.67;;
21148;SDS011;10732;51.472;6.466;2023-11-21T05:50:51;75.75;;;29.73;;
21148;SDS011;10732;51.472;6.466;2023-11-21T05:53:17;68.38;;;29.45;;
21148;SDS011;10732;51.472;6.466;2023-11-21T05:55:43;55.30;;;27.85;;
21148;SDS011;10732;51.472;6.466;2023-11-21T05:58:08;109.60;;;30.73;;
21148;SDS011;10732;51.472;6.466;2023-11-21T06:00:34;67.47;;;29.70;;
21148;SDS011;10732;51.472;6.466;2023-11-21T06:03:01;70.18;;;28.70;;
21148;SDS011;10732;51.472;6.466;2023-11-21T06:05:26;57.28;;;26.70;;
21148;SDS011;10732;51.472;6.466;2023-11-21T06:07:52;60.80;;;27.92;;
21148;SDS011;10732;51.472;6.466;2023-11-21T06:10:19;62.08;;;26.48;;
21148;SDS011;10732;51.472;6.466;2023-11-21T06:12:46;59.08;;;27.15;;
21148;SDS011;10732;51.472;6.466;2023-11-21T06:15:12;57.17;;;26.92;;
21148;SDS011;10732;51.472;6.466;2023-11-21T06:17:41;55.58;;;26.60;;
21148;SDS011;10732;51.472;6.466;2023-11-21T06:20:08;58.70;;;26.83;;
21148;SDS011;10732;51.472;6.466;2023-11-21T06:22:35;61.15;;;26.25;;
21148;SDS011;10732;51.472;6.466;2023-11-21T06:25:04;56.95;;;26.25;;
21148;SDS011;10732;51.472;6.466;2023-11-21T06:27:34;57.35;;;27.15;;
21148;SDS011;10732;51.472;6.466;2023-11-21T06:30:02;63.15;;;27.88;;
21148;SDS011;10732;51.472;6.466;2023-11-21T06:32:29;57.33;;;28.13;;
21148;SDS011;10732;51.472;6.466;2023-11-21T06:34:55;73.80;;;28.30;;
21148;SDS011;10732;51.472;6.466;2023-11-21T06:37:21;57.03;;;27.50;;
21148;SDS011;10732;51.472;6.466;2023-11-21T06:39:48;54.53;;;25.95;;
21148;SDS011;10732;51.472;6.466;2023-11-21T06:42:14;51.33;;;26.63;;
21148;SDS011;10732;51.472;6.466;2023-11-21T06:44:40;57.80;;;26.77;;
21148;SDS011;10732;51.472;6.466;2023-11-21T06:47:06;51.35;;;26.65;;
21148;SDS011;10732;51.472;6.466;2023-11-21T06:49:32;60.67;;;27.60;;
21148;SDS011;10732;51.472;6.466;2023-11-21T06:51:57;55.15;;;26.42;;
21148;SDS011;10732;51.472;6.466;2023-11-21T06:54:23;57.15;;;28.10;;
21148;SDS011;10732;51.472;6.466;2023-11-21T06:56:49;53.97;;;27.17;;
21148;SDS011;10732;51.472;6.466;2023-11-21T06:59:15;57.00;;;28.25;;
21148;SDS011;10732;51.472;6.466;2023-11-21T07:01:41;62.83;;;28.70;;
21148;SDS011;10732;51.472;6.466;2023-11-21T07:04:06;59.63;;;29.40;;
21148;SDS011;10732;51.472;6.466;2023-11-21T07:06:33;76.40;;;30.92;;
21148;SDS011;10732;51.472;6.466;2023-11-21T07:09:00;74.95;;;28.75;;
21148;SDS011;10732;51.472;6.466;2023-11-21T07:11:26;71.53;;;31.05;;
21148;SDS011;10732;51.472;6.466;2023-11-21T07:13:52;61.30;;;29.55;;
21148;SDS011;10732;51.472;6.466;2023-11-21T07:16:18;72.93;;;30.42;;
21148;SDS011;10732;51.472;6.466;2023-11-21T07:18:44;76.07;;;30.02;;
21148;SDS011;10732;51.472;6.466;2023-11-21T07:21:10;75.93;;;29.27;;
21148;SDS011;10732;51.472;6.466;2023-11-21T07:23:37;65.55;;;30.75;;
21148;SDS011;10732;51.472;6.466;2023-11-21T07:26:03;63.83;;;28.70;;
21148;SDS011;10732;51.472;6.466;2023-11-21T07:28:33;72.40;;;30.73;;
21148;SDS011;10732;51.472;6.466;2023-11-21T07:30:59;68.38;;;30.27;;
21148;SDS011;10732;51.472;6.466;2023-11-21T07:33:25;61.53;;;29.27;;
21148;SDS011;10732;51.472;6.466;2023-11-21T07:35:50;59.78;;;30.23;;
21148;SDS011;10732;51.472;6.466;2023-11-21T07:38:16;63.85;;;29.58;;
21148;SDS011;10732;51.472;6.466;2023-11-21T07:40:42;59.53;;;30.02;;
21148;SDS011;10732;51.472;6.466;2023-11-21T07:43:08;55.33;;;28.30;;
21148;SDS011;10732;51.472;6.466;2023-11-21T07:45:35;50.88;;;27.55;;
21148;SDS011;10732;51.472;6.466;2023-11-21T07:48:01;45.00;;;25.70;;
21148;SDS011;10732;51.472;6.466;2023-11-21T07:50:28;55.55;;;27.25;;
21148;SDS011;10732;51.472;6.466;2023-11-21T07:52:54;49.45;;;26.55;;
21148;SDS011;10732;51.472;6.466;2023-11-21T07:55:20;46.90;;;25.95;;
21148;SDS011;10732;51.472;6.466;2023-11-21T07:57:45;46.15;;;26.55;;
21148;SDS011;10732;51.472;6.466;2023-11-21T08:00:11;51.88;;;26.48;;
21148;SDS011;10732;51.472;6.466;2023-11-21T08:02:38;48.47;;;25.73;;
21148;SDS011;10732;51.472;6.466;2023-11-21T08:05:05;49.50;;;26.40;;
21148;SDS011;10732;51.472;6.466;2023-11-21T08:07:32;47.97;;;25.38;;
21148;SDS011;10732;51.472;6.466;2023-11-21T08:09:58;46.13;;;24.92;;
21148;SDS011;10732;51.472;6.466;2023-11-21T08:12:23;51.17;;;27.80;;
21148;SDS011;10732;51.472;6.466;2023-11-21T08:14:49;48.58;;;27.23;;
21148;SDS011;10732;51.472;6.466;2023-11-21T08:17:15;44.22;;;25.48;;
21148;SDS011;10732;51.472;6.466;2023-11-21T08:19:40;46.53;;;26.13;;
21148;SDS011;10732;51.472;6.466;2023-11-21T08:22:06;48.25;;;25.98;;
21148;SDS011;10732;51.472;6.466;2023-11-21T08:24:33;38.85;;;24.00;;
21148;SDS011;10732;51.472;6.466;2023-11-21T08:26:58;42.55;;;24.92;;
21148;SDS011;10732;51.472;6.466;2023-11-21T08:29:24;39.50;;;24.10;;
21148;SDS011;10732;51.472;6.466;2023-11-21T08:31:50;43.10;;;24.60;;
21148;SDS011;10732;51.472;6.466;2023-11-21T08:34:15;43.38;;;25.25;;
21148;SDS011;10732;51.472;6.466;2023-11-21T08:36:44;41.65;;;23.50;;
21148;SDS011;10732;51.472;6.466;2023-11-21T08:39:10;42.45;;;24.08;;
21148;SDS011;10732;51.472;6.466;2023-11-21T08:41:36;38.53;;;23.00;;
21148;SDS011;10732;51.472;6.466;2023-11-21T08:44:01;39.70;;;22.70;;
21148;SDS011;10732;51.472;6.466;2023-11-21T08:46:31;39.55;;;23.63;;
21148;SDS011;10732;51.472;6.466;2023-11-21T08:48:58;41.13;;;23.65;;
21148;SDS011;10732;51.472;6.466;2023-11-21T08:51:25;38.60;;;23.70;;
21148;SDS011;10732;51.472;6.466;2023-11-21T08:53:51;40.97;;;23.27;;
21148;SDS011;10732;51.472;6.466;2023-11-21T08:56:17;41.10;;;24.40;;
21148;SDS011;10732;51.472;6.466;2023-11-21T08:58:43;40.58;;;24.75;;
21148;SDS011;10732;51.472;6.466;2023-11-21T09:01:09;39.30;;;24.23;;
21148;SDS011;10732;51.472;6.466;2023-11-21T09:03:34;38.30;;;24.42;;
21148;SDS011;10732;51.472;6.466;2023-11-21T09:06:00;38.40;;;24.25;;
21148;SDS011;10732;51.472;6.466;2023-11-21T09:08:26;45.45;;;25.05;;
21148;SDS011;10732;51.472;6.466;2023-11-21T09:10:53;40.53;;;24.67;;
21148;SDS011;10732;51.472;6.466;2023-11-21T09:13:18;36.95;;;23.45;;
21148;SDS011;10732;51.472;6.466;2023-11-21T09:15:44;42.10;;;24.60;;
21148;SDS011;10732;51.472;6.466;2023-11-21T09:18:12;43.63;;;24.95;;
21148;SDS011;10732;51.472;6.466;2023-11-21T09:20:38;42.92;;;24.88;;
21148;SDS011;10732;51.472;6.466;2023-11-21T09:23:04;42.17;;;24.88;;
21148;SDS011;10732;51.472;6.466;2023-11-21T09:25:29;42.42;;;24.77;;
21148;SDS011;10732;51.472;6.466;2023-11-21T09:27:55;42.72;;;25.77;;
21148;SDS011;10732;51.472;6.466;2023-11-21T09:30:22;41.60;;;24.85;;
21148;SDS011;10732;51.472;6.466;2023-11-21T09:32:49;39.00;;;24.40;;
21148;SDS011;10732;51.472;6.466;2023-11-21T09:35:15;40.63;;;22.98;;
21148;SDS011;10732;51.472;6.466;2023-11-21T09:37:43;39.50;;;23.77;;
21148;SDS011;10732;51.472;6.466;2023-11-21T09:40:12;44.25;;;23.85;;
21148;SDS011;10732;51.472;6.466;2023-11-21T09:42:39;42.00;;;24.55;;
21148;SDS011;10732;51.472;6.466;2023-11-21T09:47:52;37.53;;;22.90;;
21148;SDS011;10732;51.472;6.466;2023-11-21T09:50:19;43.33;;;22.77;;
21148;SDS011;10732;51.472;6.466;2023-11-21T09:55:29;45.90;;;23.23;;
21148;SDS011;10732;51.472;6.466;2023-11-21T09:58:00;39.08;;;22.35;;
21148;SDS011;10732;51.472;6.466;2023-11-21T10:00:28;43.63;;;23.50;;
21148;SDS011;10732;51.472;6.466;2023-11-21T10:02:57;42.42;;;23.23;;
21148;SDS011;10732;51.472;6.466;2023-11-21T10:05:23;39.90;;;22.75;;
21148;SDS011;10732;51.472;6.466;2023-11-21T10:07:52;40.30;;;22.55;;
21148;SDS011;10732;51.472;6.466;2023-11-21T10:10:22;39.63;;;21.95;;
21148;SDS011;10732;51.472;6.466;2023-11-21T10:12:50;36.13;;;21.88;;
21148;SDS011;10732;51.472;6.466;2023-11-21T10:15:18;37.60;;;21.52;;
21148;SDS011;10732;51.472;6.466;2023-11-21T10:17:46;35.60;;;20.35;;
21148;SDS011;10732;51.472;6.466;2023-11-21T10:20:14;33.78;;;19.50;;
21148;SDS011;10732;51.472;6.466;2023-11-21T10:22:41;30.52;;;20.08;;
21148;SDS011;10732;51.472;6.466;2023-11-21T10:25:08;37.40;;;20.15;;
21148;SDS011;10732;51.472;6.466;2023-11-21T10:27:34;31.98;;;19.58;;
21148;SDS011;10732;51.472;6.466;2023-11-21T10:30:02;32.38;;;20.55;;
21148;SDS011;10732;51.472;6.466;2023-11-21T10:32:29;35.33;;;21.92;;
21148;SDS011;10732;51.472;6.466;2023-11-21T10:34:58;33.35;;;20.05;;
21148;SDS011;10732;51.472;6.466;2023-11-21T10:37:31;38.22;;;21.48;;
21148;SDS011;10732;51.472;6.466;2023-11-21T10:39:58;40.72;;;20.98;;
21148;SDS011;10732;51.472;6.466;2023-11-21T10:42:24;39.47;;;22.23;;
21148;SDS011;10732;51.472;6.466;2023-11-21T10:44:50;36.30;;;21.38;;
21148;SDS011;10732;51.472;6.466;2023-11-21T10:47:16;35.63;;;21.05;;
21148;SDS011;10732;51.472;6.466;2023-11-21T10:49:44;37.25;;;22.08;;
21148;SDS011;10732;51.472;6.466;2023-11-21T10:52:12;31.63;;;20.27;;
21148;SDS011;10732;51.472;6.466;2023-11-21T10:54:42;34.47;;;20.73;;
21148;SDS011;10732;51.472;6.466;2023-11-21T10:57:08;32.90;;;20.17;;
21148;SDS011;10732;51.472;6.466;2023-11-21T10:59:36;32.90;;;18.70;;
21148;SDS011;10732;51.472;6.466;2023-11-21T11:02:04;31.33;;;18.83;;
21148;SDS011;10732;51.472;6.466;2023-11-21T11:04:45;31.92;;;18.75;;
21148;SDS011;10732;51.472;6.466;2023-11-21T11:07:13;33.95;;;20.20;;
21148;SDS011;10732;51.472;6.466;2023-11-21T11:09:41;31.23;;;20.23;;
21148;SDS011;10732;51.472;6.466;2023-11-21T11:12:07;34.88;;;20.52;;
21148;SDS011;10732;51.472;6.466;2023-11-21T11:14:34;32.60;;;20.50;;
21148;SDS011;10732;51.472;6.466;2023-11-21T11:17:01;32.10;;;20.45;;
21148;SDS011;10732;51.472;6.466;2023-11-21T11:19:27;36.42;;;21.35;;
21148;SDS011;10732;51.472;6.466;2023-11-21T11:26:50;33.78;;;20.80;;
21148;SDS011;10732;51.472;6.466;2023-11-21T11:34:48;32.47;;;20.60;;
21148;SDS011;10732;51.472;6.466;2023-11-21T11:37:31;34.22;;;21.23;;
21148;SDS011;10732;51.472;6.466;2023-11-21T11:39:57;34.40;;;22.15;;
21148;SDS011;10732;51.472;6.466;2023-11-21T11:42:23;36.15;;;21.85;;
21148;SDS011;10732;51.472;6.466;2023-11-21T11:44:50;37.90;;;23.88;;
21148;SDS011;10732;51.472;6.466;2023-11-21T11:50:02;35.42;;;21.40;;
21148;SDS011;10732;51.472;6.466;2023-11-21T11:52:48;36.60;;;21.60;;
21148;SDS011;10732;51.472;6.466;2023-11-21T11:55:20;32.33;;;20.10;;
21148;SDS011;10732;51.472;6.466;2023-11-21T11:57:48;38.97;;;21.05;;
21148;SDS011;10732;51.472;6.466;2023-11-21T12:02:57;33.33;;;21.38;;
21148;SDS011;10732;51.472;6.466;2023-11-21T12:05:27;37.58;;;22.13;;
21148;SDS011;10732;51.472;6.466;2023-11-21T12:07:57;34.75;;;20.98;;
21148;SDS011;10732;51.472;6.466;2023-11-21T12:10:29;42.30;;;22.33;;
21148;SDS011;10732;51.472;6.466;2023-11-21T12:13:11;37.65;;;21.88;;
21148;SDS011;10732;51.472;6.466;2023-11-21T12:15:40;35.20;;;22.08;;
21148;SDS011;10732;51.472;6.466;2023-11-21T12:18:06;34.80;;;22.40;;
21148;SDS011;10732;51.472;6.466;2023-11-21T12:20:32;35.28;;;22.20;;
21148;SDS011;10732;51.472;6.466;2023-11-21T12:23:03;39.83;;;23.25;;
21148;SDS011;10732;51.472;6.466;2023-11-21T12:25:30;35.58;;;21.58;;
21148;SDS011;10732;51.472;6.466;2023-11-21T12:28:01;39.75;;;23.52;;
21148;SDS011;10732;51.472;6.466;2023-11-21T12:30:32;41.35;;;22.63;;
21148;SDS011;10732;51.472;6.466;2023-11-21T12:33:00;42.90;;;23.73;;
21148;SDS011;10732;51.472;6.466;2023-11-21T12:35:31;36.28;;;23.45;;
21148;SDS011;10732;51.472;6.466;2023-11-21T12:37:59;40.20;;;22.40;;
21148;SDS011;10732;51.472;6.466;2023-11-21T12:40:27;40.00;;;22.75;;
21148;SDS011;10732;51.472;6.466;2023-11-21T12:42:54;41.20;;;22.02;;
21148;SDS011;10732;51.472;6.466;2023-11-21T12:45:22;35.08;;;21.02;;
21148;SDS011;10732;51.472;6.466;2023-11-21T12:48:02;35.10;;;20.50;;
21148;SDS011;10732;51.472;6.466;2023-11-21T12:50:32;32.50;;;19.60;;
21148;SDS011;10732;51.472;6.466;2023-11-21T12:52:59;29.02;;;19.23;;
21148;SDS011;10732;51.472;6.466;2023-11-21T12:55:25;33.67;;;19.38;;
21148;SDS011;10732;51.472;6.466;2023-11-21T12:57:52;27.77;;;18.48;;
21148;SDS011;10732;51.472;6.466;2023-11-21T13:00:19;30.33;;;19.25;;
21148;SDS011;10732;51.472;6.466;2023-11-21T13:02:53;30.20;;;19.60;;
21148;SDS011;10732;51.472;6.466;2023-11-21T13:07:55;30.92;;;20.60;;
21148;SDS011;10732;51.472;6.466;2023-11-21T13:10:29;27.60;;;17.80;;
21148;SDS011;10732;51.472;6.466;2023-11-21T13:12:59;32.38;;;19.80;;
21148;SDS011;10732;51.472;6.466;2023-11-21T13:15:26;27.75;;;18.35;;
21148;SDS011;10732;51.472;6.466;2023-11-21T13:17:52;26.35;;;17.08;;
21148;SDS011;10732;51.472;6.466;2023-11-21T13:20:19;28.90;;;17.13;;
21148;SDS011;10732;51.472;6.466;2023-11-21T13:22:49;23.40;;;16.15;;
21148;SDS011;10732;51.472;6.466;2023-11-21T13:25:19;31.77;;;17.45;;
21148;SDS011;10732;51.472;6.466;2023-11-21T13:27:45;25.52;;;16.55;;
21148;SDS011;10732;51.472;6.466;2023-11-21T13:30:11;27.17;;;17.05;;
21148;SDS011;10732;51.472;6.466;2023-11-21T13:32:40;23.48;;;16.33;;
21148;SDS011;10732;51.472;6.466;2023-11-21T13:35:14;26.95;;;17.73;;
21148;SDS011;10732;51.472;6.466;2023-11-21T13:37:46;27.05;;;17.80;;
21148;SDS011;10732;51.472;6.466;2023-11-21T13:40:15;25.90;;;17.77;;
21148;SDS011;10732;51.472;6.466;2023-11-21T13:42:45;30.88;;;18.40;;
21148;SDS011;10732;51.472;6.466;2023-11-21T13:45:11;30.15;;;18.08;;
21148;SDS011;10732;51.472;6.466;2023-11-21T13:47:37;28.63;;;17.85;;
21148;SDS011;10732;51.472;6.466;2023-11-21T13:50:05;30.95;;;18.65;;
21148;SDS011;10732;51.472;6.466;2023-11-21T13:52:44;32.75;;;18.75;;
21148;SDS011;10732;51.472;6.466;2023-11-21T13:55:12;34.00;;;18.70;;
21148;SDS011;10732;51.472;6.466;2023-11-21T13:57:41;32.28;;;19.15;;
21148;SDS011;10732;51.472;6.466;2023-11-21T14:00:14;34.25;;;19.65;;
21148;SDS011;10732;51.472;6.466;2023-11-21T14:02:59;34.63;;;19.65;;
21148;SDS011;10732;51.472;6.466;2023-11-21T14:05:26;33.95;;;19.85;;
21148;SDS011;10732;51.472;6.466;2023-11-21T14:07:54;35.28;;;19.08;;
21148;SDS011;10732;51.472;6.466;2023-11-21T14:10:21;33.03;;;17.67;;
21148;SDS011;10732;51.472;6.466;2023-11-21T14:12:49;29.88;;;17.60;;
21148;SDS011;10732;51.472;6.466;2023-11-21T14:15:15;27.38;;;16.75;;
21148;SDS011;10732;51.472;6.466;2023-11-21T14:17:44;27.05;;;16.65;;
21148;SDS011;10732;51.472;6.466;2023-11-21T14:20:09;25.63;;;16.45;;
21148;SDS011;10732;51.472;6.466;2023-11-21T14:22:40;31.08;;;17.08;;
21148;SDS011;10732;51.472;6.466;2023-11-21T14:25:06;28.50;;;16.63;;
21148;SDS011;10732;51.472;6.466;2023-11-21T14:27:32;29.85;;;17.10;;
21148;SDS011;10732;51.472;6.466;2023-11-21T14:29:58;26.48;;;16.42;;
21148;SDS011;10732;51.472;6.466;2023-11-21T14:32:25;32.80;;;17.58;;
21148;SDS011;10732;51.472;6.466;2023-11-21T14:34:51;28.75;;;17.45;;
21148;SDS011;10732;51.472;6.466;2023-11-21T14:37:17;31.35;;;17.92;;
21148;SDS011;10732;51.472;6.466;2023-11-21T14:39:42;28.10;;;16.38;;
21148;SDS011;10732;51.472;6.466;2023-11-21T14:42:12;27.17;;;16.88;;
21148;SDS011;10732;51.472;6.466;2023-11-21T14:44:40;25.38;;;15.82;;